Ben Bolt, TX

5:12 AM CDT on September 21, 2014 (GMT -0500)
Alice International | Change Station
CLOSE
Current Station
Airport
Location: Alice,
Elevation: 177 ft
Nearby Weather Stations

Elev 177 ft 27.74 °N, 98.03 °W | Updated 19 minutes ago

Clear
Clear
76 °F
Feels Like 76 °F
N
6
Wind Variable Wind from North

Today
High -- | Low -- °F
--% Chance of Precip.
Yesterday
High -- | Low -- °F
Precip. -- in
7:20 AM 7:29 PM
Waning Crescent, 7% visible
Pressure 29.91 in
Visibility 10.0 miles
Clouds Few 2200 ft
Dew Point 75 °F
Humidity 97%
Rainfall 0.00 in
Snow Depth Not available.
UV 0 out of 12
Pollen 9.50 out of 12
Air Quality Not available.
Flu Activity Not available.
METAR KALI 210953Z AUTO 01005KT 10SM FEW022 24/24 A2992 RMK AO2 SLP127 T02440239

More Conditions Fewer Conditions

Pressure 29.91 in
Visibility 10.0 miles
Clouds Few 2200 ft
Dew Point 75 °F
Humidity 97%
Rainfall 0.00 in
Snow Depth Not available.
UV 0 out of 12
Pollen 9.50 out of 12
Air Quality Not available.
Flu Activity Not available.
METAR KALI 210953Z AUTO 01005KT 10SM FEW022 24/24 A2992 RMK AO2 SLP127 T02440239

More Conditions Fewer Conditions

10-Day Weather Forecast

Almanac

Astronomy

Sep. 21, 2014 Rise Set
Actual Time 7:20 AM CDT 7:29 PM CDT
Civil Twilight 6:56 AM CDT 7:53 PM CDT
Nautical Twilight 6:29 AM CDT 8:20 PM CDT
Astronomical Twilight 6:02 AM CDT 8:47 PM CDT
Moon 5:04 AM CDT 5:59 PM CDT
Length of Visible Light 12h 56m
Length of Day
12h 09m
Tomorrow will be 1m 38s shorter.
Waning Crescent, 7% of the Moon is Illuminated
Today
Waning Crescent
Sep 24
New
Oct 1
First Quarter
Oct 8
Full
Oct 15
Last Quarter

Today's Extremes

State Highs State Lows

Community

WunderPhotos

Upload Photos

1,755,107 photos uploaded!

Nearby

Snow Depth

Station Depth Elevation
No new snow has been reported.

Earthquake Activity

City Distance Mag. Time & Date
No recent earthquake activity has been reported nearby.
Minimum magnitude displayed is 2.5.

Coastal Water Temperatures

Place Temperature
No Stations Reporting

Nearby Weather Stations